sensor_id;sensor_type;location;lat;lon;timestamp;P1;durP1;ratioP1;P2;durP2;ratioP2
17261;SDS011;9873;52.236;21.002;2023-06-26T00:03:15;15.23;;;10.00;;
17261;SDS011;9873;52.236;21.002;2023-06-26T00:13:18;10.77;;;8.27;;
17261;SDS011;9873;52.236;21.002;2023-06-26T00:23:21;12.07;;;7.75;;
17261;SDS011;9873;52.236;21.002;2023-06-26T00:33:26;9.23;;;7.90;;
17261;SDS011;9873;52.236;21.002;2023-06-26T00:43:31;9.70;;;8.20;;
17261;SDS011;9873;52.236;21.002;2023-06-26T00:53:37;10.82;;;7.50;;
17261;SDS011;9873;52.236;21.002;2023-06-26T01:03:42;10.25;;;8.18;;
17261;SDS011;9873;52.236;21.002;2023-06-26T01:13:47;9.02;;;6.90;;
17261;SDS011;9873;52.236;21.002;2023-06-26T01:34:01;10.85;;;7.93;;
17261;SDS011;9873;52.236;21.002;2023-06-26T01:54:18;12.77;;;5.90;;
17261;SDS011;9873;52.236;21.002;2023-06-26T02:04:26;7.68;;;6.30;;
17261;SDS011;9873;52.236;21.002;2023-06-26T02:14:31;8.13;;;6.07;;
17261;SDS011;9873;52.236;21.002;2023-06-26T02:24:33;6.78;;;4.50;;
17261;SDS011;9873;52.236;21.002;2023-06-26T02:34:38;9.75;;;5.43;;
17261;SDS011;9873;52.236;21.002;2023-06-26T02:44:40;6.97;;;5.50;;
17261;SDS011;9873;52.236;21.002;2023-06-26T02:54:47;5.80;;;5.07;;
17261;SDS011;9873;52.236;21.002;2023-06-26T03:04:52;8.43;;;6.00;;
17261;SDS011;9873;52.236;21.002;2023-06-26T03:15:00;7.13;;;6.20;;
17261;SDS011;9873;52.236;21.002;2023-06-26T03:25:03;6.63;;;5.80;;
17261;SDS011;9873;52.236;21.002;2023-06-26T03:35:11;9.77;;;6.65;;
17261;SDS011;9873;52.236;21.002;2023-06-26T03:45:14;8.25;;;6.18;;
17261;SDS011;9873;52.236;21.002;2023-06-26T03:55:18;7.70;;;6.13;;
17261;SDS011;9873;52.236;21.002;2023-06-26T04:05:24;13.93;;;6.40;;
17261;SDS011;9873;52.236;21.002;2023-06-26T04:15:29;10.02;;;7.25;;
17261;SDS011;9873;52.236;21.002;2023-06-26T04:25:31;8.93;;;8.00;;
17261;SDS011;9873;52.236;21.002;2023-06-26T04:35:33;12.00;;;9.02;;
17261;SDS011;9873;52.236;21.002;2023-06-26T04:45:40;12.77;;;8.98;;
17261;SDS011;9873;52.236;21.002;2023-06-26T04:55:46;11.55;;;8.38;;
17261;SDS011;9873;52.236;21.002;2023-06-26T05:05:51;10.82;;;8.13;;
17261;SDS011;9873;52.236;21.002;2023-06-26T05:15:55;9.00;;;7.43;;
17261;SDS011;9873;52.236;21.002;2023-06-26T05:26:00;10.43;;;7.60;;
17261;SDS011;9873;52.236;21.002;2023-06-26T05:36:03;14.00;;;6.07;;
17261;SDS011;9873;52.236;21.002;2023-06-26T05:46:06;10.65;;;6.57;;
17261;SDS011;9873;52.236;21.002;2023-06-26T05:56:11;8.88;;;6.57;;
17261;SDS011;9873;52.236;21.002;2023-06-26T06:06:17;8.55;;;6.20;;
17261;SDS011;9873;52.236;21.002;2023-06-26T06:16:39;8.07;;;5.28;;
17261;SDS011;9873;52.236;21.002;2023-06-26T06:26:45;6.75;;;5.03;;
17261;SDS011;9873;52.236;21.002;2023-06-26T06:36:53;6.00;;;4.50;;
17261;SDS011;9873;52.236;21.002;2023-06-26T06:46:55;5.05;;;4.55;;
17261;SDS011;9873;52.236;21.002;2023-06-26T06:56:58;6.78;;;4.00;;
17261;SDS011;9873;52.236;21.002;2023-06-26T07:07:00;4.88;;;4.38;;
17261;SDS011;9873;52.236;21.002;2023-06-26T07:17:06;4.88;;;3.53;;
17261;SDS011;9873;52.236;21.002;2023-06-26T07:27:08;4.22;;;3.80;;
17261;SDS011;9873;52.236;21.002;2023-06-26T07:37:14;6.38;;;4.13;;
17261;SDS011;9873;52.236;21.002;2023-06-26T07:47:16;4.53;;;3.83;;
17261;SDS011;9873;52.236;21.002;2023-06-26T07:57:19;7.55;;;4.70;;
17261;SDS011;9873;52.236;21.002;2023-06-26T08:07:21;4.57;;;4.15;;
17261;SDS011;9873;52.236;21.002;2023-06-26T08:17:31;5.07;;;4.30;;
17261;SDS011;9873;52.236;21.002;2023-06-26T08:27:34;4.25;;;3.85;;
17261;SDS011;9873;52.236;21.002;2023-06-26T08:37:41;4.15;;;3.75;;
17261;SDS011;9873;52.236;21.002;2023-06-26T08:47:46;4.95;;;3.67;;
17261;SDS011;9873;52.236;21.002;2023-06-26T08:57:55;5.00;;;4.47;;
17261;SDS011;9873;52.236;21.002;2023-06-26T09:07:58;4.03;;;3.38;;
17261;SDS011;9873;52.236;21.002;2023-06-26T09:18:00;4.22;;;3.70;;
17261;SDS011;9873;52.236;21.002;2023-06-26T09:28:08;4.93;;;3.58;;
17261;SDS011;9873;52.236;21.002;2023-06-26T09:38:12;7.32;;;4.00;;
17261;SDS011;9873;52.236;21.002;2023-06-26T09:48:17;4.47;;;3.63;;
17261;SDS011;9873;52.236;21.002;2023-06-26T09:58:21;4.75;;;4.00;;
17261;SDS011;9873;52.236;21.002;2023-06-26T10:08:28;5.60;;;4.32;;
17261;SDS011;9873;52.236;21.002;2023-06-26T10:18:41;4.15;;;3.55;;
17261;SDS011;9873;52.236;21.002;2023-06-26T10:28:45;8.05;;;3.78;;
17261;SDS011;9873;52.236;21.002;2023-06-26T10:38:54;4.15;;;3.30;;
17261;SDS011;9873;52.236;21.002;2023-06-26T10:48:58;4.05;;;3.65;;
17261;SDS011;9873;52.236;21.002;2023-06-26T10:59:13;7.93;;;3.58;;
17261;SDS011;9873;52.236;21.002;2023-06-26T11:09:23;4.25;;;3.45;;
17261;SDS011;9873;52.236;21.002;2023-06-26T11:19:34;4.22;;;3.83;;
17261;SDS011;9873;52.236;21.002;2023-06-26T11:29:37;5.20;;;3.67;;
17261;SDS011;9873;52.236;21.002;2023-06-26T11:39:42;4.32;;;3.38;;
17261;SDS011;9873;52.236;21.002;2023-06-26T11:49:47;3.42;;;3.00;;
17261;SDS011;9873;52.236;21.002;2023-06-26T11:59:51;5.28;;;3.28;;
17261;SDS011;9873;52.236;21.002;2023-06-26T12:09:54;3.92;;;3.03;;
17261;SDS011;9873;52.236;21.002;2023-06-26T12:20:00;5.00;;;3.20;;
17261;SDS011;9873;52.236;21.002;2023-06-26T12:30:04;3.63;;;3.33;;
17261;SDS011;9873;52.236;21.002;2023-06-26T12:40:19;4.82;;;3.00;;
17261;SDS011;9873;52.236;21.002;2023-06-26T12:50:31;3.50;;;3.20;;
17261;SDS011;9873;52.236;21.002;2023-06-26T13:00:41;6.35;;;3.40;;
17261;SDS011;9873;52.236;21.002;2023-06-26T13:10:46;5.53;;;3.47;;
17261;SDS011;9873;52.236;21.002;2023-06-26T13:20:53;7.25;;;3.80;;
17261;SDS011;9873;52.236;21.002;2023-06-26T13:30:55;5.18;;;3.20;;
17261;SDS011;9873;52.236;21.002;2023-06-26T13:41:00;4.22;;;3.78;;
17261;SDS011;9873;52.236;21.002;2023-06-26T13:51:03;8.02;;;3.80;;
17261;SDS011;9873;52.236;21.002;2023-06-26T14:01:05;3.47;;;3.08;;
17261;SDS011;9873;52.236;21.002;2023-06-26T14:11:09;4.60;;;3.40;;
17261;SDS011;9873;52.236;21.002;2023-06-26T14:21:12;4.35;;;3.60;;
17261;SDS011;9873;52.236;21.002;2023-06-26T14:31:17;3.83;;;3.22;;
17261;SDS011;9873;52.236;21.002;2023-06-26T14:41:19;4.03;;;3.45;;
17261;SDS011;9873;52.236;21.002;2023-06-26T14:51:22;3.65;;;3.35;;
17261;SDS011;9873;52.236;21.002;2023-06-26T15:01:28;5.22;;;3.50;;
17261;SDS011;9873;52.236;21.002;2023-06-26T15:11:32;4.55;;;3.25;;
17261;SDS011;9873;52.236;21.002;2023-06-26T15:21:37;3.50;;;3.20;;
17261;SDS011;9873;52.236;21.002;2023-06-26T15:31:45;5.28;;;3.85;;
17261;SDS011;9873;52.236;21.002;2023-06-26T15:41:53;5.60;;;3.63;;
17261;SDS011;9873;52.236;21.002;2023-06-26T15:51:58;5.82;;;3.92;;
17261;SDS011;9873;52.236;21.002;2023-06-26T16:02:08;4.03;;;3.63;;
17261;SDS011;9873;52.236;21.002;2023-06-26T16:12:13;3.78;;;3.40;;
17261;SDS011;9873;52.236;21.002;2023-06-26T16:22:18;4.35;;;3.83;;
17261;SDS011;9873;52.236;21.002;2023-06-26T16:32:25;4.35;;;3.60;;
17261;SDS011;9873;52.236;21.002;2023-06-26T16:42:30;4.45;;;4.03;;
17261;SDS011;9873;52.236;21.002;2023-06-26T16:52:35;5.75;;;3.72;;
17261;SDS011;9873;52.236;21.002;2023-06-26T17:02:38;5.07;;;4.57;;
17261;SDS011;9873;52.236;21.002;2023-06-26T17:12:46;4.30;;;3.83;;
17261;SDS011;9873;52.236;21.002;2023-06-26T17:22:53;4.13;;;3.70;;
17261;SDS011;9873;52.236;21.002;2023-06-26T17:32:58;5.05;;;4.13;;
17261;SDS011;9873;52.236;21.002;2023-06-26T17:43:06;5.22;;;4.30;;
17261;SDS011;9873;52.236;21.002;2023-06-26T17:53:12;9.63;;;4.32;;
17261;SDS011;9873;52.236;21.002;2023-06-26T18:03:14;4.53;;;4.10;;
17261;SDS011;9873;52.236;21.002;2023-06-26T18:13:21;5.72;;;4.55;;
17261;SDS011;9873;52.236;21.002;2023-06-26T18:23:24;4.88;;;4.28;;
17261;SDS011;9873;52.236;21.002;2023-06-26T18:33:32;6.72;;;4.78;;
17261;SDS011;9873;52.236;21.002;2023-06-26T18:43:34;5.97;;;4.72;;
17261;SDS011;9873;52.236;21.002;2023-06-26T18:53:37;5.63;;;4.38;;
17261;SDS011;9873;52.236;21.002;2023-06-26T19:03:44;6.38;;;4.80;;
17261;SDS011;9873;52.236;21.002;2023-06-26T19:13:49;30.00;;;15.88;;
17261;SDS011;9873;52.236;21.002;2023-06-26T19:23:54;7.07;;;5.18;;
17261;SDS011;9873;52.236;21.002;2023-06-26T19:34:03;7.60;;;4.38;;
17261;SDS011;9873;52.236;21.002;2023-06-26T19:54:39;10.82;;;7.13;;
17261;SDS011;9873;52.236;21.002;2023-06-26T20:04:44;7.95;;;4.68;;
17261;SDS011;9873;52.236;21.002;2023-06-26T20:14:52;6.18;;;4.72;;
17261;SDS011;9873;52.236;21.002;2023-06-26T20:35:32;9.85;;;4.18;;
17261;SDS011;9873;52.236;21.002;2023-06-26T20:45:35;7.90;;;4.30;;
17261;SDS011;9873;52.236;21.002;2023-06-26T20:55:44;6.80;;;4.75;;
17261;SDS011;9873;52.236;21.002;2023-06-26T21:05:47;5.65;;;4.40;;
17261;SDS011;9873;52.236;21.002;2023-06-26T21:15:49;7.30;;;4.03;;
17261;SDS011;9873;52.236;21.002;2023-06-26T21:25:55;8.63;;;4.78;;
17261;SDS011;9873;52.236;21.002;2023-06-26T21:35:59;7.57;;;4.70;;
17261;SDS011;9873;52.236;21.002;2023-06-26T21:46:04;7.45;;;4.15;;
17261;SDS011;9873;52.236;21.002;2023-06-26T21:56:06;7.50;;;4.50;;
17261;SDS011;9873;52.236;21.002;2023-06-26T22:06:08;7.05;;;5.18;;
17261;SDS011;9873;52.236;21.002;2023-06-26T22:16:11;9.32;;;4.70;;
17261;SDS011;9873;52.236;21.002;2023-06-26T22:26:20;5.13;;;4.57;;
17261;SDS011;9873;52.236;21.002;2023-06-26T22:36:25;7.07;;;4.45;;
17261;SDS011;9873;52.236;21.002;2023-06-26T22:46:36;5.25;;;4.32;;
17261;SDS011;9873;52.236;21.002;2023-06-26T22:56:43;5.50;;;4.50;;
17261;SDS011;9873;52.236;21.002;2023-06-26T23:06:58;6.60;;;4.47;;
17261;SDS011;9873;52.236;21.002;2023-06-26T23:17:04;6.53;;;4.80;;
17261;SDS011;9873;52.236;21.002;2023-06-26T23:27:07;6.18;;;4.15;;
17261;SDS011;9873;52.236;21.002;2023-06-26T23:37:14;8.20;;;4.68;;
17261;SDS011;9873;52.236;21.002;2023-06-26T23:47:29;6.15;;;4.95;;
17261;SDS011;9873;52.236;21.002;2023-06-26T23:57:36;7.47;;;5.25;;
